Terminal Aerodrome Forecast
Issued by NWS

Current Version | Previous Version | Text Only | Print | Product List | Glossary On
Versions: 1 2 3 4 5 6 7 8 9 10 11 12 13 14 15 16 17 18 19 20 21 22 23
514
FTUS41 KGYX 101120
TAFRKD
TAF
KRKD 101120Z 1012/1112 29003KT P6SM SCT030 BKN200
     FM102100 VRB03KT 3SM -SHSN OVC030
     FM110300 27006KT P6SM BKN040
      AMD LTD TO CLD VIS AND WIND=

USA.gov is the U.S. government's official web portal to all federal, state and local government web resources and services.